Thursday, February 22, 2018, 8:45 PM CST
Back to Local

KUGN, Chicago/waukegan Regional

Location: Waukegan, IL, United States Lat: 42.417
Local Time: 8:45 PM CST ( 2:45 GMT) Lon: -87.867
Time Zone: US/Central Elev: 728 ft

Show me the last for .
Show Decoded

2018-02-22 19:55 METAR KUGN 230155Z 08011KT 10SM OVC022 02/00 A3037 RMK AO2 SLP297 LAST T00220000
                 =
2018-02-22 18:55 METAR KUGN 230055Z 07014KT 10SM OVC025 02/M01 A3040 RMK AO2 SLP304 T00221006 =
2018-02-22 18:46 METAR KUGN 230046Z 07012KT 10SM OVC027 02/M01 A3040 RMK AO2 T00221006 =
2018-02-22 18:16 METAR KUGN 230016Z 07012KT 10SM OVC031 02/M01 A3041 RMK AO2 T00221006 =
2018-02-22 17:55 METAR KUGN 222355Z 06010KT 10SM OVC029 02/M01 A3043 RMK AO2 SLP317 T00221006
                 10022 20017 56008 =
2018-02-22 16:55 METAR KUGN 222255Z 06009KT 10SM OVC024 02/M01 A3043 RMK AO2 SLP317 T00221011 =
2018-02-22 15:55 METAR KUGN 222155Z 06011KT 10SM BKN028 OVC038 02/M01 A3043 RMK AO2 SLP316
                 T00171011 =
2018-02-22 14:55 METAR KUGN 222055Z 06010KT 10SM BKN042 OVC100 02/M01 A3046 RMK AO2 SLP327
                 T00171011 56027 =
2018-02-22 13:55 METAR KUGN 221955Z 06012KT 9SM FEW013 OVC075 02/M01 A3047 RMK AO2 PRESFR SLP331
                 T00171011 =
2018-02-22 13:23 METAR KUGN 221923Z 07012G18KT 10SM FEW012 BKN085 OVC100 02/M01 A3050 RMK AO2
                 T00171011 =
2018-02-22 13:08 METAR KUGN 221908Z 06014KT 10SM SCT012 BKN029 OVC085 02/M01 A3050 RMK AO2
                 T00171011 =
2018-02-22 12:55 METAR KUGN 221855Z 07011G18KT 10SM BKN012 OVC028 02/M01 A3051 RMK AO2 SLP344
                 T00171011 =
2018-02-22 12:38 METAR KUGN 221838Z 06009G19KT 10SM BKN013 BKN030 OVC090 02/M01 A3052 RMK AO2
                 T00171011 =
2018-02-22 11:55 METAR KUGN 221755Z 06013G18KT 10SM SCT014 OVC080 02/M01 A3054 RMK AO2 SLP355
                 T00171011 10022 21011 58013 =
2018-02-22 10:55 METAR KUGN 221655Z COR 07012G17KT 10SM FEW014 OVC095 01/M02 A3056 RMK AO2 SLP363
                 T00111017 =
2018-02-22 09:55 METAR KUGN 221555Z COR 06011G18KT 10SM SCT013 BKN100 02/M01 A3056 RMK AO2 SLP362
                 T00221011 =
2018-02-22 08:55 METAR KUGN 221455Z 05008G15KT 10SM SCT014 BKN100 01/M02 A3058 RMK AO2 SLP369
                 T00111017 51008 =
2018-02-22 07:55 METAR KUGN 221355Z 03007KT 10SM BKN120 00/M02 A3057 RMK AO2 SLP366 T00001022 =
2018-02-22 06:55 METAR KUGN 221255Z 05008KT 10SM CLR M01/M03 A3056 RMK AO2 SLP365 T10061028 =
2018-02-22 05:55 METAR KUGN 221155Z 05007KT 10SM CLR M01/M04 A3055 RMK AO2 SLP361 T10111039 11011
                 21022 58001 =
2018-02-22 04:55 METAR KUGN 221055Z AUTO 04009KT 10SM CLR M01/M04 A3056 RMK AO2 SLP363 T10111044
                 =
2018-02-22 03:55 METAR KUGN 220955Z AUTO 04007G15KT 10SM CLR M01/M06 A3056 RMK AO2 SLP362
                 T10111056 =
2018-02-22 02:55 METAR KUGN 220855Z AUTO 04009G15KT 10SM CLR M02/M06 A3055 RMK AO2 SLP361
                 T10171056 58013 =
2018-02-22 01:55 METAR KUGN 220755Z AUTO 04008KT 10SM CLR M02/M06 A3058 RMK AO2 SLP370 T10171056
                 =
2018-02-22 00:55 METAR KUGN 220655Z AUTO 04008KT 10SM CLR M02/M06 A3059 RMK AO2 SLP373 T10171056
                 =
2018-02-21 23:55 METAR KUGN 220555Z AUTO 04007KT 10SM CLR M02/M07 A3059 RMK AO2 SLP376 T10221067
                 11022 21033 410061044 58018 =
2018-02-21 22:55 METAR KUGN 220455Z AUTO 04005KT 10SM CLR M03/M07 A3062 RMK AO2 SLP386 T10281067
                 =
2018-02-21 21:55 METAR KUGN 220355Z AUTO 04005KT 10SM CLR M03/M07 A3064 RMK AO2 SLP392 T10281072
                 =
2018-02-21 20:55 METAR KUGN 220255Z AUTO 00000KT 10SM CLR M03/M07 A3065 RMK AO2 SLP395 T10331072
                 51010 =

Support USWX by starting your Amazon purchase here.